createdAt,value
2019-03-01T00:00:53.114Z,97613.63
2019-03-01T00:01:57.957Z,97594.33
2019-03-01T00:03:00.760Z,97608.13
2019-03-01T00:04:03.591Z,97608.05
2019-03-01T00:05:06.397Z,97610.59
2019-03-01T00:06:09.310Z,97613.14
2019-03-01T00:07:14.094Z,97613.14
2019-03-01T00:08:16.909Z,97591.86
2019-03-01T00:09:19.715Z,97605.09
2019-03-01T00:10:22.515Z,97602.25
2019-03-01T00:11:25.421Z,97610.05
2019-03-01T00:12:28.291Z,97592.03
2019-03-01T00:13:31.865Z,97600.33
2019-03-01T00:14:34.661Z,97600.33
2019-03-01T00:15:37.484Z,97602.47
2019-03-01T00:16:40.290Z,97602.47
2019-03-01T00:17:43.193Z,97598.39
2019-03-01T00:18:45.998Z,97600.33
2019-03-01T00:19:49.158Z,97591.86
2019-03-01T00:20:51.946Z,97592.44
2019-03-01T00:21:54.763Z,97592.44
2019-03-01T00:22:58.097Z,97588.53
2019-03-01T00:24:00.981Z,97589.80
2019-03-01T00:25:03.787Z,97587.95
2019-03-01T00:26:08.813Z,97582.55
2019-03-01T00:27:14.004Z,97584.47
2019-03-01T00:28:16.820Z,97589.06
2019-03-01T00:29:19.748Z,97581.09
2019-03-01T00:30:23.032Z,97581.09
2019-03-01T00:31:25.859Z,97575.93
2019-03-01T00:32:28.980Z,97575.93
2019-03-01T00:33:31.840Z,97579.21
2019-03-01T00:34:34.628Z,97574.16
2019-03-01T00:35:37.925Z,97570.11
2019-03-01T00:36:41.129Z,97569.40
2019-03-01T00:37:44.422Z,97574.09
2019-03-01T00:38:47.606Z,97565.87
2019-03-01T00:39:50.406Z,97578.72
2019-03-01T00:40:59.219Z,97581.59
2019-03-01T00:42:02.056Z,97566.92
2019-03-01T00:43:04.885Z,97577.28
2019-03-01T00:44:07.699Z,97574.90
2019-03-01T00:45:10.932Z,97570.42
2019-03-01T00:46:13.808Z,97568.13
2019-03-01T00:47:16.631Z,97563.66
2019-03-01T00:48:19.438Z,97563.66
2019-03-01T00:49:22.271Z,97563.03
2019-03-01T00:50:25.082Z,97558.81
2019-03-01T00:51:28.275Z,97558.81
2019-03-01T00:52:31.095Z,97557.61
2019-03-01T00:53:33.938Z,97570.27
2019-03-01T00:54:36.736Z,97554.98
2019-03-01T00:55:39.551Z,97562.63
2019-03-01T00:56:42.825Z,97562.63
2019-03-01T00:57:45.921Z,97564.30
2019-03-01T00:58:48.763Z,97554.17
2019-03-01T00:59:51.637Z,97553.47
2019-03-01T01:00:54.464Z,97551.72
2019-03-01T01:01:57.795Z,97555.28
2019-03-01T01:03:00.604Z,97553.84
2019-03-01T01:04:03.719Z,97554.91
2019-03-01T01:05:06.518Z,97551.70
2019-03-01T01:06:09.324Z,97549.23
2019-03-01T01:07:12.227Z,97552.66
2019-03-01T01:08:15.068Z,97546.54
2019-03-01T01:09:17.856Z,97552.13
2019-03-01T01:10:20.958Z,97547.08
2019-03-01T01:11:23.787Z,97544.00
2019-03-01T01:12:26.699Z,97538.91
2019-03-01T01:13:29.575Z,97532.14
2019-03-01T01:14:32.455Z,97521.39
2019-03-01T01:15:35.269Z,97531.81
2019-03-01T01:16:38.090Z,97533.70
2019-03-01T01:17:40.905Z,97531.31
2019-03-01T01:18:43.776Z,97534.19
2019-03-01T01:19:46.659Z,97528.29
2019-03-01T01:20:49.580Z,97533.57
2019-03-01T01:21:52.374Z,97518.75
2019-03-01T01:22:55.917Z,97530.70
2019-03-01T01:23:58.765Z,97528.61
2019-03-01T01:25:03.196Z,97530.21
2019-03-01T01:26:06.028Z,97530.21
2019-03-01T01:27:08.815Z,97528.20
2019-03-01T01:28:11.686Z,97526.14
2019-03-01T01:29:14.855Z,97525.58
2019-03-01T01:30:17.738Z,97525.58
2019-03-01T01:31:20.555Z,97519.21
2019-03-01T01:32:23.369Z,97513.63
2019-03-01T01:33:26.171Z,97513.63
2019-03-01T01:34:29.068Z,97516.19
2019-03-01T01:35:32.328Z,97511.66
2019-03-01T01:36:35.155Z,97511.66
2019-03-01T01:37:37.949Z,97517.41
2019-03-01T01:38:40.760Z,97517.41
2019-03-01T01:39:43.596Z,97512.28
2019-03-01T01:40:46.513Z,97504.32
2019-03-01T01:41:51.866Z,97514.37
2019-03-01T01:42:54.733Z,97509.49
2019-03-01T01:43:57.609Z,97512.36
2019-03-01T01:45:00.639Z,97509.66
2019-03-01T01:46:03.602Z,97516.19
2019-03-01T01:47:06.458Z,97505.52
2019-03-01T01:48:09.713Z,97504.08
2019-03-01T01:49:12.640Z,97504.08
2019-03-01T01:50:15.500Z,97508.45
2019-03-01T01:51:18.377Z,97507.11
2019-03-01T01:52:21.872Z,97505.84
2019-03-01T01:53:24.777Z,97505.84
2019-03-01T01:54:27.888Z,97508.63
2019-03-01T01:55:30.758Z,97505.34
2019-03-01T01:56:33.584Z,97489.83
2019-03-01T01:57:36.442Z,97489.83
2019-03-01T01:58:39.227Z,97504.23
2019-03-01T01:59:42.079Z,97497.28
2019-03-01T02:00:45.236Z,97497.28
2019-03-01T02:01:48.073Z,97495.31
2019-03-01T02:02:51.314Z,97494.98
2019-03-01T02:03:54.135Z,97494.30
2019-03-01T02:04:58.293Z,97497.78
2019-03-01T02:06:01.816Z,97489.09
2019-03-01T02:07:04.973Z,97498.48
2019-03-01T02:08:07.804Z,97498.48
2019-03-01T02:09:10.823Z,97492.44
2019-03-01T02:10:19.184Z,97492.44
2019-03-01T02:12:29.739Z,97489.66
2019-03-01T02:13:33.296Z,97486.25
2019-03-01T02:14:36.115Z,97489.33
2019-03-01T02:15:38.929Z,97485.59
2019-03-01T02:16:41.723Z,97494.75
2019-03-01T02:17:45.001Z,97487.36
2019-03-01T02:18:57.151Z,97498.73
2019-03-01T02:19:52.286Z,97482.31
2019-03-01T02:20:57.953Z,97482.02
2019-03-01T02:22:05.980Z,97483.38
2019-03-01T02:23:08.793Z,97481.28
2019-03-01T02:24:11.648Z,97477.95
2019-03-01T02:25:14.723Z,97477.95
2019-03-01T02:26:17.515Z,97475.61
2019-03-01T02:27:20.851Z,97478.08
2019-03-01T02:28:23.674Z,97473.73
2019-03-01T02:29:26.782Z,97475.09
2019-03-01T02:30:30.036Z,97475.09
2019-03-01T02:31:33.087Z,97470.05
2019-03-01T02:32:35.982Z,97465.70
2019-03-01T02:33:38.890Z,97465.70
2019-03-01T02:34:41.733Z,97473.90
2019-03-01T02:35:44.574Z,97454.45
2019-03-01T02:36:47.356Z,97458.92
2019-03-01T02:37:50.471Z,97461.72
2019-03-01T02:38:53.276Z,97464.43
2019-03-01T02:39:56.162Z,97459.02
2019-03-01T02:40:58.978Z,97468.65
2019-03-01T02:42:01.782Z,97451.59
2019-03-01T02:43:04.603Z,97460.28
2019-03-01T02:44:08.576Z,97460.28
2019-03-01T02:45:11.468Z,97453.02
2019-03-01T02:46:14.269Z,97445.66
2019-03-01T02:47:17.104Z,97450.39
2019-03-01T02:48:19.943Z,97450.39
2019-03-01T02:49:22.763Z,97449.69
2019-03-01T02:50:25.899Z,97450.55
2019-03-01T02:51:28.691Z,97447.15
2019-03-01T02:52:31.490Z,97447.53
2019-03-01T02:53:37.492Z,97441.88
2019-03-01T02:54:40.736Z,97447.52
2019-03-01T02:55:43.595Z,97442.02
2019-03-01T02:56:46.698Z,97440.30
2019-03-01T02:57:49.510Z,97432.63
2019-03-01T02:58:52.322Z,97433.61
2019-03-01T02:59:55.213Z,97436.77
2019-03-01T03:00:58.015Z,97436.86
2019-03-01T03:02:00.866Z,97431.94
2019-03-01T03:03:04.080Z,97431.94
2019-03-01T03:04:06.941Z,97427.06
2019-03-01T03:05:10.105Z,97440.92
2019-03-01T03:06:29.883Z,97432.31
2019-03-01T03:07:41.769Z,97431.69
2019-03-01T03:08:45.212Z,97428.25
2019-03-01T03:09:48.277Z,97435.42
2019-03-01T03:10:51.060Z,97439.06
2019-03-01T03:11:53.886Z,97421.27
2019-03-01T03:12:57.057Z,97427.14
2019-03-01T03:13:59.959Z,97427.14
2019-03-01T03:15:02.746Z,97431.75
2019-03-01T03:16:05.824Z,97438.53
2019-03-01T03:17:08.623Z,97431.59
2019-03-01T03:18:11.470Z,97429.91
2019-03-01T03:19:14.806Z,97431.42
2019-03-01T03:20:17.528Z,97417.90
2019-03-01T03:21:20.322Z,97424.98
2019-03-01T03:22:23.485Z,97423.04
2019-03-01T03:23:26.264Z,97422.34
2019-03-01T03:24:29.068Z,97417.70
2019-03-01T03:25:31.856Z,97422.19
2019-03-01T03:26:34.659Z,97422.19
2019-03-01T03:27:37.448Z,97414.23
2019-03-01T03:28:40.628Z,97414.23
2019-03-01T03:29:43.448Z,97423.72
2019-03-01T03:30:46.635Z,97425.61
2019-03-01T03:31:49.418Z,97425.61
2019-03-01T03:32:52.223Z,97417.64
2019-03-01T03:33:54.932Z,97414.60
2019-03-01T03:34:58.059Z,97409.23
2019-03-01T03:36:00.758Z,97421.23
2019-03-01T03:37:03.661Z,97418.04
2019-03-01T03:38:06.898Z,97418.04
2019-03-01T03:39:09.651Z,97415.74
2019-03-01T03:40:12.437Z,97419.89
2019-03-01T03:41:15.576Z,97412.14
2019-03-01T03:42:18.811Z,97412.14
2019-03-01T03:43:22.807Z,97408.78
2019-03-01T03:44:25.888Z,97408.53
2019-03-01T03:45:29.116Z,97425.59
2019-03-01T03:46:32.447Z,97414.45
2019-03-01T03:47:35.386Z,97412.70
2019-03-01T03:48:38.187Z,97412.70
2019-03-01T03:49:40.970Z,97416.91
2019-03-01T03:50:44.262Z,97416.91
2019-03-01T03:51:47.031Z,97411.18
2019-03-01T03:52:50.196Z,97416.11
2019-03-01T03:53:53.014Z,97418.73
2019-03-01T03:54:55.878Z,97418.73
2019-03-01T03:55:58.718Z,97406.20
2019-03-01T03:57:01.949Z,97417.64
2019-03-01T03:58:04.745Z,97417.64
2019-03-01T03:59:07.892Z,97415.48
2019-03-01T04:00:10.758Z,97409.58
2019-03-01T04:01:13.565Z,97409.65
2019-03-01T04:02:16.373Z,97415.22
2019-03-01T04:03:19.278Z,97406.78
2019-03-01T04:04:22.269Z,97408.78
2019-03-01T04:05:25.357Z,97411.16
2019-03-01T04:06:28.220Z,97401.14
2019-03-01T04:07:31.021Z,97410.69
2019-03-01T04:08:33.814Z,97404.25
2019-03-01T04:09:36.629Z,97402.56
2019-03-01T04:10:39.416Z,97399.31
2019-03-01T04:11:42.547Z,97399.31
2019-03-01T04:12:45.387Z,97399.49
2019-03-01T04:13:48.159Z,97397.10
2019-03-01T04:14:51.016Z,97399.59
2019-03-01T04:15:53.836Z,97399.59
2019-03-01T04:16:56.729Z,97403.09
2019-03-01T04:18:00.274Z,97390.48
2019-03-01T04:19:03.091Z,97399.27
2019-03-01T04:20:05.905Z,97390.90
2019-03-01T04:21:08.761Z,97397.10
2019-03-01T04:22:11.622Z,97399.20
2019-03-01T04:23:14.325Z,97397.84
2019-03-01T04:24:17.433Z,97401.34
2019-03-01T04:25:20.125Z,97393.54
2019-03-01T04:26:23.066Z,97388.21
2019-03-01T04:27:25.933Z,97389.56
2019-03-01T04:28:28.794Z,97389.56
2019-03-01T04:29:31.597Z,97394.02
2019-03-01T04:30:34.709Z,97392.27
2019-03-01T04:31:37.623Z,97392.27
2019-03-01T04:32:40.439Z,97398.26
2019-03-01T04:33:43.291Z,97398.26
2019-03-01T04:34:46.095Z,97392.52
2019-03-01T04:35:48.905Z,97392.52
2019-03-01T04:36:52.038Z,97403.86
2019-03-01T04:37:54.793Z,97403.86
2019-03-01T04:38:57.572Z,97395.61
2019-03-01T04:40:00.370Z,97392.17
2019-03-01T04:41:03.164Z,97392.17
2019-03-01T04:42:06.404Z,97392.56
2019-03-01T04:43:09.572Z,97392.56
2019-03-01T04:44:13.258Z,97393.34
2019-03-01T04:45:16.515Z,97393.34
2019-03-01T04:46:19.487Z,97388.83
2019-03-01T04:47:22.286Z,97379.45
2019-03-01T04:48:25.064Z,97377.86
2019-03-01T04:49:28.053Z,97382.17
2019-03-01T04:50:30.837Z,97376.52
2019-03-01T04:51:39.934Z,97380.00
2019-03-01T04:52:39.794Z,97376.84
2019-03-01T04:53:42.717Z,97378.19
2019-03-01T04:54:45.537Z,97377.86
2019-03-01T04:55:48.683Z,97376.96
2019-03-01T04:56:51.501Z,97376.96
2019-03-01T04:57:54.329Z,97381.84
2019-03-01T04:58:57.196Z,97373.72
2019-03-01T05:00:00.320Z,97381.20
2019-03-01T05:01:03.720Z,97376.20
2019-03-01T05:02:06.832Z,97365.78
2019-03-01T05:03:09.633Z,97369.52
2019-03-01T05:04:15.294Z,97370.63
2019-03-01T05:05:18.101Z,97370.63
2019-03-01T05:06:20.886Z,97375.10
2019-03-01T05:07:23.691Z,97377.39
2019-03-01T05:08:26.791Z,97372.88
2019-03-01T05:09:29.658Z,97377.81
2019-03-01T05:10:32.459Z,97372.16
2019-03-01T05:11:35.269Z,97373.27
2019-03-01T05:12:38.068Z,97373.27
2019-03-01T05:13:40.916Z,97378.30
2019-03-01T05:14:45.600Z,97377.70
2019-03-01T05:15:48.521Z,97371.72
2019-03-01T05:16:51.361Z,97380.00
2019-03-01T05:17:54.284Z,97369.19
2019-03-01T05:18:58.489Z,97381.27
2019-03-01T05:20:01.460Z,97380.24
2019-03-01T05:21:06.215Z,97381.59
2019-03-01T05:22:09.016Z,97381.59
2019-03-01T05:23:12.698Z,97379.74
2019-03-01T05:24:16.583Z,97380.70
2019-03-01T05:25:19.455Z,97380.70
2019-03-01T05:26:22.324Z,97380.83
2019-03-01T05:27:26.667Z,97380.14
2019-03-01T05:28:29.444Z,97380.14
2019-03-01T05:29:33.266Z,97376.25
2019-03-01T05:30:40.888Z,97378.09
2019-03-01T05:31:43.666Z,97370.50
2019-03-01T05:32:48.118Z,97372.88
2019-03-01T05:33:51.285Z,97364.94
2019-03-01T05:34:54.176Z,97373.45
2019-03-01T05:35:56.981Z,97372.88
2019-03-01T05:36:59.783Z,97369.72
2019-03-01T05:38:03.805Z,97363.59
2019-03-01T05:39:06.617Z,97373.98
2019-03-01T05:40:09.704Z,97369.60
2019-03-01T05:41:12.567Z,97368.64
2019-03-01T05:42:15.376Z,97368.64
2019-03-01T05:43:18.291Z,97362.77
2019-03-01T05:44:21.131Z,97363.58
2019-03-01T05:45:23.985Z,97363.58
2019-03-01T05:46:29.904Z,97369.36
2019-03-01T05:47:32.691Z,97368.75
2019-03-01T05:48:35.475Z,97370.73
2019-03-01T05:49:38.297Z,97374.16
2019-03-01T05:50:41.172Z,97372.80
2019-03-01T05:51:46.800Z,97369.77
2019-03-01T05:52:49.876Z,97374.62
2019-03-01T05:53:55.381Z,97380.36
2019-03-01T05:54:59.073Z,97380.36
2019-03-01T05:56:02.038Z,97378.05
2019-03-01T05:57:07.822Z,97370.10
2019-03-01T05:58:16.439Z,97383.55
2019-03-01T05:59:18.147Z,97383.55
2019-03-01T06:00:22.059Z,97380.03
2019-03-01T06:01:24.914Z,97380.83
2019-03-01T06:02:28.186Z,97381.45
2019-03-01T06:03:31.051Z,97386.33
2019-03-01T06:04:34.245Z,97386.09
2019-03-01T06:05:37.161Z,97380.19
2019-03-01T06:06:42.427Z,97380.19
2019-03-01T06:07:48.323Z,97382.11
2019-03-01T06:08:52.630Z,97379.65
2019-03-01T06:09:55.496Z,97379.65
2019-03-01T06:11:02.180Z,97385.19
2019-03-01T06:12:04.980Z,97386.63
2019-03-01T06:13:07.778Z,97387.03
2019-03-01T06:14:12.953Z,97387.03
2019-03-01T06:15:15.832Z,97389.32
2019-03-01T06:16:19.284Z,97389.32
2019-03-01T06:17:27.914Z,97389.32
2019-03-01T06:18:30.753Z,97390.47
2019-03-01T06:19:34.115Z,97390.47
2019-03-01T06:20:37.139Z,97380.27
2019-03-01T06:21:39.958Z,97388.54
2019-03-01T06:22:42.728Z,97380.34
2019-03-01T06:23:46.371Z,97393.38
2019-03-01T06:24:49.176Z,97395.22
2019-03-01T06:25:52.064Z,97395.22
2019-03-01T06:26:56.292Z,97393.95
2019-03-01T06:27:59.144Z,97394.52
2019-03-01T06:29:02.040Z,97391.88
2019-03-01T06:43:44.572Z,97391.59
2019-03-01T06:44:47.526Z,97391.59
2019-03-01T06:45:50.719Z,97396.27
2019-03-01T06:46:59.499Z,97398.60
2019-03-01T06:48:05.344Z,97396.36
2019-03-01T06:49:24.514Z,97388.71
2019-03-01T06:50:44.489Z,97385.06
2019-03-01T06:51:47.363Z,97385.06
2019-03-01T06:52:50.183Z,97388.80
2019-03-01T06:53:53.161Z,97396.02
2019-03-01T06:54:55.996Z,97386.71
2019-03-01T06:56:00.569Z,97386.71
2019-03-01T06:57:06.822Z,97394.27
2019-03-01T06:58:09.772Z,97394.87
2019-03-01T06:59:13.964Z,97394.87
2019-03-01T07:00:16.843Z,97394.87
2019-03-01T07:01:22.169Z,122438.84
2019-03-01T07:02:34.590Z,122438.84
2019-03-01T07:03:37.391Z,97390.39
2019-03-01T07:04:40.205Z,97390.39
2019-03-01T07:05:45.626Z,97403.27
2019-03-01T07:06:48.420Z,122438.84
2019-03-01T07:07:52.141Z,122438.84
2019-03-01T07:08:57.031Z,122438.84
2019-03-01T07:09:59.867Z,146291.83
2019-03-01T07:11:02.675Z,97394.07
2019-03-01T07:12:05.927Z,97399.14
2019-03-01T07:13:08.790Z,97399.14
2019-03-01T07:14:11.580Z,97400.23
2019-03-01T07:15:14.644Z,97400.23
2019-03-01T07:16:17.440Z,97409.86
2019-03-01T07:17:20.102Z,97406.45
2019-03-01T07:18:23.261Z,97413.84
2019-03-01T07:19:26.118Z,97406.82
2019-03-01T07:20:28.880Z,97407.46
2019-03-01T07:21:31.836Z,97413.58
2019-03-01T07:22:34.581Z,97413.58
2019-03-01T07:23:37.447Z,97416.42
2019-03-01T07:24:40.324Z,97416.42
2019-03-01T07:25:45.919Z,97412.52
2019-03-01T07:26:48.723Z,122438.84
2019-03-01T07:27:54.083Z,136225.34
2019-03-01T07:28:56.926Z,122438.84
2019-03-01T07:30:02.800Z,122438.84
2019-03-01T07:31:07.075Z,97425.55
2019-03-01T07:32:10.082Z,97427.00
2019-03-01T07:33:12.916Z,97422.52
2019-03-01T07:34:15.915Z,97420.28
2019-03-01T07:35:18.727Z,97431.31
2019-03-01T07:36:21.441Z,97426.08
2019-03-01T07:37:27.232Z,97426.08
2019-03-01T07:38:30.083Z,97434.22
2019-03-01T07:39:34.771Z,97427.61
2019-03-01T07:40:37.975Z,97427.61
2019-03-01T07:41:40.758Z,97435.97
2019-03-01T07:42:43.599Z,97437.24
2019-03-01T07:43:46.443Z,97432.25
2019-03-01T07:44:49.790Z,97433.66
2019-03-01T07:45:52.693Z,97433.20
2019-03-01T07:46:58.558Z,97430.41
2019-03-01T07:48:01.433Z,97430.41
2019-03-01T07:49:04.179Z,97437.03
2019-03-01T07:50:07.157Z,97437.72
2019-03-01T07:51:10.087Z,97435.34
2019-03-01T07:52:12.942Z,97440.05
2019-03-01T07:53:19.621Z,97446.02
2019-03-01T07:54:24.131Z,97446.02
2019-03-01T07:55:28.371Z,97443.14
2019-03-01T07:56:31.352Z,97443.14
2019-03-01T07:57:34.217Z,97439.23
2019-03-01T07:58:37.255Z,97444.73
2019-03-01T07:59:42.637Z,97448.70
2019-03-01T08:00:47.239Z,97444.73
2019-03-01T08:01:49.823Z,97444.73
2019-03-01T08:02:54.847Z,97449.53
2019-03-01T08:03:57.550Z,97449.53
2019-03-01T08:05:04.078Z,97452.06
2019-03-01T08:06:13.298Z,97451.66
2019-03-01T08:07:16.627Z,97449.69
2019-03-01T08:08:19.579Z,97452.23
2019-03-01T08:09:22.356Z,97450.61
2019-03-01T08:10:25.286Z,97453.48
2019-03-01T08:11:33.106Z,97458.00
2019-03-01T08:12:38.615Z,97457.06
2019-03-01T08:13:52.951Z,97461.13
2019-03-01T08:14:55.549Z,97458.81
2019-03-01T08:16:03.822Z,97458.81
2019-03-01T08:17:06.556Z,97463.03
2019-03-01T08:18:09.544Z,97457.89
2019-03-01T08:19:22.523Z,97457.89
2019-03-01T08:20:19.440Z,97461.73
2019-03-01T08:21:22.188Z,97456.17
2019-03-01T08:22:25.933Z,97459.49
2019-03-01T08:23:31.715Z,97459.00
2019-03-01T08:24:36.463Z,97458.64
2019-03-01T08:25:42.053Z,97455.66
2019-03-01T08:26:44.891Z,97460.15
2019-03-01T08:27:50.073Z,97456.78
2019-03-01T08:28:54.762Z,97462.02
2019-03-01T08:29:56.662Z,97455.66
2019-03-01T08:30:59.766Z,97455.66
2019-03-01T08:32:02.675Z,97461.82
2019-03-01T08:33:09.264Z,97459.35
2019-03-01T08:34:14.418Z,97464.69
2019-03-01T08:35:25.355Z,97464.69
2019-03-01T08:36:25.630Z,97464.91
2019-03-01T08:37:28.855Z,97463.70
2019-03-01T08:38:33.299Z,97463.70
2019-03-01T08:39:39.848Z,97463.37
2019-03-01T08:40:49.837Z,97464.65
2019-03-01T08:42:00.272Z,97470.16
2019-03-01T08:43:02.844Z,97468.91
2019-03-01T08:44:05.557Z,97468.91
2019-03-01T08:45:08.330Z,97468.80
2019-03-01T08:46:19.039Z,97475.03
2019-03-01T08:47:24.501Z,97475.03
2019-03-01T08:48:34.578Z,97472.14
2019-03-01T08:49:33.474Z,97480.11
2019-03-01T08:50:36.317Z,97485.61
2019-03-01T08:51:39.230Z,97485.61
2019-03-01T08:52:42.201Z,97483.38
2019-03-01T08:53:44.837Z,97483.38
2019-03-01T08:54:47.766Z,97486.06
2019-03-01T08:55:52.132Z,97490.44
2019-03-01T08:56:55.272Z,97490.44
2019-03-01T08:57:59.718Z,97489.17
2019-03-01T08:59:05.323Z,97481.06
2019-03-01T09:00:08.077Z,97492.67
2019-03-01T09:01:11.028Z,97489.74
2019-03-01T09:02:13.702Z,97488.30
2019-03-01T09:03:22.150Z,97493.39
2019-03-01T09:04:21.582Z,97494.57
2019-03-01T09:05:24.520Z,97494.66
2019-03-01T09:06:27.156Z,97491.20
2019-03-01T09:07:30.201Z,97494.63
2019-03-01T09:08:33.593Z,97493.09
2019-03-01T09:09:39.118Z,97493.09
2019-03-01T09:10:41.920Z,97491.73
2019-03-01T09:11:45.444Z,97497.80
2019-03-01T09:12:48.153Z,97497.80
2019-03-01T09:13:50.947Z,97496.26
2019-03-01T09:14:53.687Z,97493.52
2019-03-01T09:16:01.054Z,97496.47
2019-03-01T09:17:04.956Z,97496.47
2019-03-01T09:18:14.534Z,97493.03
2019-03-01T09:19:16.219Z,97494.97
2019-03-01T09:20:19.229Z,97494.97
2019-03-01T09:21:22.063Z,97497.86
2019-03-01T09:22:28.098Z,97498.61
2019-03-01T09:23:31.704Z,97494.27
2019-03-01T09:24:35.919Z,97491.66
2019-03-01T09:25:49.872Z,97495.96
2019-03-01T09:26:55.130Z,97497.67
2019-03-01T09:28:00.179Z,97496.65
2019-03-01T09:29:03.010Z,97493.94
2019-03-01T09:30:06.236Z,97502.08
2019-03-01T09:31:09.075Z,97499.27
2019-03-01T09:32:24.116Z,97497.40
2019-03-01T09:33:29.414Z,97504.84
2019-03-01T09:34:33.058Z,97505.69
2019-03-01T09:35:50.185Z,97504.03
2019-03-01T09:37:01.806Z,97504.03
2019-03-01T09:38:07.579Z,97509.66
2019-03-01T09:39:10.482Z,97511.45
2019-03-01T09:40:13.255Z,97515.18
2019-03-01T09:41:16.828Z,97513.19
2019-03-01T09:42:19.635Z,97509.23
2019-03-01T09:43:24.709Z,97509.23
2019-03-01T09:44:28.264Z,97509.11
2019-03-01T09:45:36.136Z,97509.11
2019-03-01T09:46:35.653Z,97512.45
2019-03-01T09:47:45.948Z,97506.27
2019-03-01T09:48:49.461Z,97511.28
2019-03-01T09:49:56.615Z,97511.28
2019-03-01T09:51:00.642Z,97519.84
2019-03-01T09:52:05.963Z,97518.88
2019-03-01T09:53:10.702Z,97522.47
2019-03-01T09:54:14.699Z,97522.47
2019-03-01T09:55:17.532Z,97527.95
2019-03-01T09:56:20.832Z,97522.41
2019-03-01T09:57:28.180Z,97532.50
2019-03-01T09:58:32.505Z,97533.77
2019-03-01T09:59:41.354Z,97533.77
2019-03-01T10:00:44.629Z,97529.84
2019-03-01T10:01:47.425Z,97529.41
2019-03-01T10:02:52.770Z,97532.80
2019-03-01T10:03:56.369Z,97529.66
2019-03-01T10:04:59.302Z,97536.63
2019-03-01T10:06:02.698Z,97526.63
2019-03-01T10:07:09.712Z,97547.43
2019-03-01T10:08:12.512Z,97545.73
2019-03-01T10:09:17.766Z,97542.39
2019-03-01T10:10:20.603Z,97540.31
2019-03-01T10:11:26.716Z,97544.95
2019-03-01T10:12:29.513Z,97530.91
2019-03-01T10:14:38.597Z,97542.09
2019-03-01T10:15:41.705Z,97539.53
2019-03-01T10:16:45.639Z,97543.75
2019-03-01T10:17:48.453Z,97543.75
2019-03-01T10:18:51.306Z,97544.95
2019-03-01T10:19:55.458Z,97549.41
2019-03-01T10:20:58.364Z,97545.49
2019-03-01T10:22:01.589Z,97545.89
2019-03-01T10:23:04.420Z,97548.55
2019-03-01T10:24:07.490Z,97548.55
2019-03-01T10:25:10.371Z,97554.13
2019-03-01T10:26:13.205Z,97554.13
2019-03-01T10:27:16.039Z,97555.42
2019-03-01T10:28:22.068Z,97558.08
2019-03-01T10:29:25.003Z,97558.08
2019-03-01T10:30:34.046Z,97559.40
2019-03-01T10:31:36.895Z,97552.31
2019-03-01T10:32:42.253Z,97563.56
2019-03-01T10:33:51.305Z,97563.56
2019-03-01T10:34:54.216Z,97570.31
2019-03-01T10:35:57.019Z,97564.44
2019-03-01T10:36:59.906Z,97557.41
2019-03-01T10:38:02.866Z,97557.41
2019-03-01T10:39:22.351Z,97561.63
2019-03-01T10:40:23.502Z,97567.36
2019-03-01T10:41:26.437Z,97565.03
2019-03-01T10:42:29.462Z,97569.85
2019-03-01T10:43:35.262Z,97571.00
2019-03-01T10:44:43.048Z,97571.00
2019-03-01T10:45:47.935Z,97572.77
2019-03-01T10:46:50.855Z,97575.05
2019-03-01T10:47:56.179Z,97575.05
2019-03-01T10:49:01.066Z,97569.72
2019-03-01T10:50:03.594Z,97576.34
2019-03-01T10:51:06.796Z,97571.17
2019-03-01T10:52:10.733Z,97578.88
2019-03-01T10:53:13.582Z,97580.44
2019-03-01T10:54:20.196Z,97579.06
2019-03-01T10:55:25.846Z,97580.33
2019-03-01T10:56:31.565Z,97587.36
2019-03-01T10:57:34.413Z,97587.36
2019-03-01T10:58:37.828Z,97580.13
2019-03-01T10:59:42.258Z,97579.22
2019-03-01T11:00:45.079Z,97586.16
2019-03-01T11:01:47.999Z,97590.56
2019-03-01T11:02:50.822Z,97597.25
2019-03-01T11:03:56.202Z,97586.97
2019-03-01T11:05:04.228Z,97594.92
2019-03-01T11:06:07.019Z,97599.00
2019-03-01T11:07:09.858Z,97597.83
2019-03-01T11:08:12.743Z,97592.45
2019-03-01T11:09:15.556Z,97591.30
2019-03-01T11:10:18.515Z,97591.30
2019-03-01T11:11:27.869Z,97597.20
2019-03-01T11:12:33.159Z,97594.67
2019-03-01T11:13:38.221Z,97600.16
2019-03-01T11:14:41.064Z,97600.16
2019-03-01T11:15:43.888Z,97599.45
2019-03-01T11:16:49.222Z,97599.82
2019-03-01T11:17:55.823Z,97594.52
2019-03-01T11:19:01.191Z,97597.05
2019-03-01T11:20:04.022Z,97600.73
2019-03-01T11:21:09.497Z,97592.53
2019-03-01T11:22:13.909Z,97596.00
2019-03-01T11:23:16.788Z,97603.52
2019-03-01T11:24:21.436Z,97603.45
2019-03-01T11:25:26.086Z,97603.45
2019-03-01T11:26:29.001Z,97596.09
2019-03-01T11:27:32.361Z,97596.09
2019-03-01T11:28:35.510Z,97606.91
2019-03-01T11:29:40.199Z,97602.06
2019-03-01T11:42:52.621Z,97626.20
2019-03-01T11:43:58.367Z,97621.33
2019-03-01T11:45:03.484Z,97631.85
2019-03-01T11:46:06.361Z,97635.38
2019-03-01T11:47:09.211Z,97635.38
2019-03-01T11:48:12.349Z,97634.98
2019-03-01T11:49:22.899Z,97630.73
2019-03-01T11:50:29.670Z,97629.80
2019-03-01T11:51:35.513Z,97635.21
2019-03-01T11:52:38.312Z,97640.01
2019-03-01T11:53:41.172Z,97634.97
2019-03-01T11:54:44.320Z,97634.97
2019-03-01T11:55:49.906Z,97638.87
2019-03-01T11:56:53.701Z,97645.65
2019-03-01T11:57:56.733Z,97636.23
2019-03-01T11:59:02.689Z,97636.23
2019-03-01T12:00:09.139Z,97626.34
2019-03-01T12:01:17.157Z,97638.25
2019-03-01T12:02:18.894Z,97644.22
2019-03-01T12:03:21.588Z,97644.22
2019-03-01T12:04:24.776Z,97641.37
2019-03-01T12:05:28.329Z,97640.16
2019-03-01T12:06:31.382Z,97643.52
2019-03-01T12:07:34.884Z,97647.19
2019-03-01T12:08:37.871Z,97647.19
2019-03-01T12:09:41.694Z,97651.67
2019-03-01T12:10:44.573Z,97644.38
2019-03-01T12:11:48.635Z,97648.86
2019-03-01T12:12:54.698Z,97648.86
2019-03-01T12:13:57.833Z,97644.95
2019-03-01T12:15:00.662Z,97644.55
2019-03-01T12:16:03.499Z,97644.55
2019-03-01T12:17:06.578Z,97654.53
2019-03-01T12:18:09.446Z,97649.81
2019-03-01T12:19:12.263Z,97652.15
2019-03-01T12:20:15.413Z,97652.15
2019-03-01T12:21:18.222Z,97656.22
2019-03-01T12:22:38.223Z,97649.03
2019-03-01T12:23:41.053Z,97649.03
2019-03-01T12:24:45.542Z,97655.97
2019-03-01T12:25:48.368Z,97655.97
2019-03-01T12:26:51.517Z,97655.64
2019-03-01T12:27:54.432Z,97657.33
2019-03-01T12:28:57.338Z,97657.33
2019-03-01T12:30:00.309Z,97664.27
2019-03-01T12:31:04.243Z,97660.36
2019-03-01T12:32:07.072Z,97658.84
2019-03-01T12:33:20.271Z,97667.92
2019-03-01T12:34:22.449Z,97667.92
2019-03-01T12:35:25.264Z,97667.21
2019-03-01T12:36:31.125Z,97667.30
2019-03-01T12:37:34.019Z,97674.38
2019-03-01T12:38:36.977Z,97674.38
2019-03-01T12:39:40.666Z,97669.46
2019-03-01T12:40:43.473Z,97672.47
2019-03-01T12:41:46.721Z,97673.48
2019-03-01T12:42:49.568Z,97670.84
2019-03-01T12:43:54.668Z,97670.84
2019-03-01T12:44:57.611Z,97678.75
2019-03-01T12:46:00.516Z,97674.09
2019-03-01T12:47:03.523Z,97662.73
2019-03-01T12:48:06.489Z,97662.73
2019-03-01T12:49:12.527Z,97669.78
2019-03-01T12:50:15.357Z,97693.27
2019-03-01T12:51:18.626Z,97687.13
2019-03-01T12:52:21.497Z,97694.86
2019-03-01T12:53:24.508Z,97692.58
2019-03-01T12:54:27.323Z,97689.30
2019-03-01T12:55:30.245Z,97690.66
2019-03-01T12:56:33.076Z,97680.22
2019-03-01T12:57:36.756Z,97692.08